Time;durP1;ratioP1;P1;durP2;ratioP2;P2;SDS_P1;SDS_P2;PMS_P1;PMS_P2;Temp;Humidity;BMP_temperature;BMP_pressure;BME280_temperature;BME280_humidity;BME280_pressure;Samples;Min_cycle;Max_cycle;Signal;HPM_P1;HPM_P2
2022/12/26 00:02:07;;;;;;;232.73;82.85;;;;;;;8.00;100.00;100914.13;5113632;28;20413;-48
2022/12/26 00:04:32;;;;;;;242.45;83.57;;;;;;;7.98;100.00;100907.19;5112895;28;20024;-49
2022/12/26 00:06:58;;;;;;;235.98;84.40;;;;;;;8.01;100.00;100905.63;5113189;28;20481;-49
2022/12/26 00:09:23;;;;;;;247.63;85.85;;;;;;;8.03;100.00;100910.81;5112913;28;20028;-48
2022/12/26 00:11:48;;;;;;;245.05;86.03;;;;;;;8.06;100.00;100908.41;5112596;28;20031;-46
2022/12/26 00:14:14;;;;;;;243.18;83.82;;;;;;;8.05;100.00;100907.50;5112982;28;20501;-48
2022/12/26 00:16:42;;;;;;;232.43;80.95;;;;;;;8.06;100.00;100913.53;5113301;28;20031;-47
2022/12/26 00:19:08;;;;;;;;;;;;;;;8.14;100.00;100921.53;5113234;28;20356;-49
2022/12/26 00:21:33;;;;;;;244.45;85.85;;;;;;;8.11;100.00;100926.53;5112785;28;19933;-46
2022/12/26 00:23:59;;;;;;;235.45;86.13;;;;;;;8.10;100.00;100925.66;5113130;28;20020;-49
2022/12/26 00:26:27;;;;;;;237.75;86.70;;;;;;;8.11;100.00;100937.69;5112663;28;20028;-45
2022/12/26 00:28:53;;;;;;;;;;;;;;;8.17;100.00;100943.09;5113494;28;20390;-48
2022/12/26 00:31:28;;;;;;;243.88;84.43;;;;;;;8.13;100.00;100943.75;5112861;28;19969;-50
2022/12/26 00:33:53;;;;;;;236.95;87.10;;;;;;;8.15;100.00;100960.09;5113151;28;20540;-49
2022/12/26 00:36:21;;;;;;;240.07;87.18;;;;;;;8.15;100.00;100962.69;5113004;28;20051;-48
2022/12/26 00:38:47;;;;;;;250.23;87.47;;;;;;;8.16;100.00;100951.59;5112359;28;20715;-48
2022/12/26 00:41:14;;;;;;;247.32;90.43;;;;;;;8.17;100.00;100968.75;5113225;28;20522;-47
2022/12/26 00:43:40;;;;;;;242.68;91.65;;;;;;;8.18;100.00;100956.78;5112952;28;20023;-44
2022/12/26 00:46:06;;;;;;;243.15;89.95;;;;;;;8.18;100.00;100947.38;5112699;28;20409;-48
2022/12/26 00:48:32;;;;;;;249.35;91.43;;;;;;;8.18;100.00;100959.34;5112653;28;20024;-48
2022/12/26 00:50:58;;;;;;;250.82;92.93;;;;;;;8.19;100.00;100959.41;5113463;28;20026;-44
2022/12/26 00:53:24;;;;;;;250.68;93.65;;;;;;;8.18;100.00;100954.22;5112459;28;20034;-47
2022/12/26 00:55:50;;;;;;;262.90;96.90;;;;;;;8.18;100.00;100960.22;5112415;28;20053;-45
2022/12/26 00:58:16;;;;;;;264.52;99.13;;;;;;;8.17;100.00;100971.31;5112886;28;20379;-48
2022/12/26 01:00:41;;;;;;;269.73;100.53;;;;;;;8.18;100.00;100961.94;5112279;28;20068;-48
2022/12/26 01:03:07;;;;;;;272.17;100.20;;;;;;;8.17;100.00;100962.72;5112521;28;20051;-48
2022/12/26 01:05:33;;;;;;;287.10;104.40;;;;;;;8.16;100.00;100961.88;5112581;28;20473;-48
2022/12/26 01:07:59;;;;;;;272.30;101.65;;;;;;;8.15;100.00;100947.28;5112319;28;20023;-49
2022/12/26 01:10:24;;;;;;;270.08;102.32;;;;;;;8.14;100.00;100945.50;5112504;28;20016;-48
2022/12/26 01:12:50;;;;;;;268.85;100.57;;;;;;;8.06;100.00;100954.59;5112709;28;20356;-49
2022/12/26 01:15:15;;;;;;;271.17;103.10;;;;;;;8.04;100.00;100963.91;5112088;28;20027;-47
2022/12/26 01:17:41;;;;;;;274.92;102.47;;;;;;;8.03;100.00;100972.41;5112407;28;20463;-48
2022/12/26 01:20:06;;;;;;;253.30;97.28;;;;;;;8.02;100.00;100968.13;5115014;28;20035;-48
2022/12/26 01:22:32;;;;;;;247.10;95.88;;;;;;;8.01;100.00;100981.75;5115793;28;20433;-47
2022/12/26 01:24:57;;;;;;;225.80;90.05;;;;;;;8.02;100.00;100973.25;5116200;28;20024;-48
2022/12/26 01:27:24;;;;;;;235.15;91.28;;;;;;;8.01;100.00;100976.63;5115916;28;20077;-48
2022/12/26 01:29:51;;;;;;;225.00;89.20;;;;;;;7.99;100.00;100966.31;5116329;28;20019;-48
2022/12/26 01:32:17;;;;;;;234.98;90.57;;;;;;;7.98;100.00;100967.13;5116316;28;20261;-48
2022/12/26 01:34:42;;;;;;;229.85;89.68;;;;;;;7.98;100.00;100967.13;5115478;28;20031;-48
2022/12/26 01:37:11;;;;;;;222.05;86.28;;;;;;;7.97;100.00;100967.06;5116448;28;20027;-49
2022/12/26 01:39:37;;;;;;;233.32;92.28;;;;;;;7.95;100.00;100960.97;5115635;28;20024;-49
2022/12/26 01:42:02;;;;;;;233.88;90.80;;;;;;;7.93;100.00;100965.13;5115796;28;20034;-48
2022/12/26 01:45:01;;;;;;;215.15;87.20;;;;;;;7.91;100.00;100971.13;5115650;28;20028;-46
2022/12/26 01:47:50;;;;;;;212.50;85.72;;;;;;;7.89;100.00;100977.84;5116253;28;20516;-49
2022/12/26 01:50:40;;;;;;;210.75;85.80;;;;;;;7.85;100.00;100975.97;5115723;28;20034;-49
2022/12/26 01:53:33;;;;;;;224.80;89.50;;;;;;;7.87;100.00;100979.47;5115815;28;20023;-49
2022/12/26 01:56:04;;;;;;;220.77;90.60;;;;;;;7.86;100.00;100977.75;5115382;28;20509;-49
2022/12/26 01:58:38;;;;;;;222.35;87.93;;;;;;;7.85;100.00;100980.22;5115268;28;20024;-49
2022/12/26 02:01:06;;;;;;;221.27;86.47;;;;;;;7.86;100.00;100975.19;5116018;28;20035;-48
2022/12/26 02:06:17;;;;;;;226.95;87.55;;;;;;;7.83;100.00;100967.31;5115894;28;20030;-48
2022/12/26 02:08:44;;;;;;;227.75;89.90;;;;;;;7.85;100.00;100964.81;5115459;28;20036;-48
2022/12/26 02:11:17;;;;;;;234.40;91.82;;;;;;;7.85;100.00;100968.28;5115255;28;20019;-48
2022/12/26 02:13:43;;;;;;;228.57;92.18;;;;;;;7.87;100.00;100984.59;5115082;28;20034;-48
2022/12/26 02:16:13;;;;;;;221.80;90.57;;;;;;;7.86;100.00;100982.88;5115732;28;20047;-49
2022/12/26 02:18:38;;;;;;;222.10;88.18;;;;;;;7.85;100.00;100975.97;5114874;28;20031;-48
2022/12/26 02:21:33;;;;;;;206.73;84.15;;;;;;;7.90;100.00;100989.00;5115238;28;20081;-48
2022/12/26 02:24:26;;;;;;;210.20;84.55;;;;;;;7.89;100.00;101003.53;5115038;28;20102;-48
2022/12/26 02:27:13;;;;;;;188.25;80.18;;;;;;;7.90;100.00;100989.88;5114865;28;20031;-48
2022/12/26 02:30:02;;;;;;;167.60;74.45;;;;;;;7.89;100.00;100977.00;5115114;28;20034;-44
2022/12/26 02:32:59;;;;;;;162.90;71.55;;;;;;;7.90;100.00;100979.63;5114112;28;20031;-43
2022/12/26 02:35:33;;;;;;;154.15;71.28;;;;;;;7.89;100.00;100972.72;5115078;28;20039;-48
2022/12/26 02:38:25;;;;;;;143.52;67.72;;;;;;;7.88;100.00;100970.97;5114591;28;20491;-48
2022/12/26 02:41:14;;;;;;;147.13;69.72;;;;;;;7.88;100.00;100981.22;5114629;28;20051;-49
2022/12/26 02:43:57;;;;;;;148.50;69.80;;;;;;;7.88;100.00;100981.22;5114838;28;20096;-49
2022/12/26 02:47:10;;;;;;;141.57;68.13;;;;;;;7.90;100.00;100978.72;5114341;28;20124;-48
2022/12/26 03:13:09;;;;;;;120.85;59.50;;;;;;;7.88;100.00;100981.22;5114012;28;20552;-48
2022/12/26 03:18:29;;;;;;;97.82;52.65;;;;;;;7.85;100.00;100990.47;5114536;28;20043;-48
2022/12/26 03:20:55;;;;;;;101.32;53.20;;;;;;;7.83;100.00;100998.13;5113729;28;20012;-48
2022/12/26 03:23:21;;;;;;;102.00;52.08;;;;;;;7.83;100.00;101007.50;5114193;28;20084;-49
2022/12/26 03:28:39;;;;;;;91.00;49.53;;;;;;;7.79;100.00;100990.25;5113752;28;20042;-45
2022/12/26 03:31:07;;;;;;;95.00;47.60;;;;;;;7.79;100.00;100975.72;5114102;28;20118;-49
2022/12/26 03:36:38;;;;;;;78.90;44.28;;;;;;;7.74;100.00;100960.09;5114038;28;20497;-49
2022/12/26 03:39:12;;;;;;;81.28;43.50;;;;;;;7.73;100.00;100972.88;5113896;28;20491;-49
2022/12/26 04:20:07;;;;;;;58.40;34.35;;;;;;;7.60;100.00;101032.16;5113212;28;20055;-48
2022/12/26 04:46:09;;;;;;;43.28;25.83;;;;;;;7.55;100.00;101007.19;5112989;28;20042;-48
2022/12/26 04:51:28;;;;;;;43.03;26.15;;;;;;;7.52;100.00;100999.34;5112530;28;20169;-48
2022/12/26 04:53:53;;;;;;;40.15;25.40;;;;;;;7.52;100.00;100991.66;5113071;28;20118;-47
2022/12/26 04:56:19;;;;;;;41.53;24.98;;;;;;;7.49;100.00;100991.53;5117222;28;20043;-49
2022/12/26 04:58:44;;;;;;;42.50;25.10;;;;;;;7.49;100.00;100988.97;5116333;28;20019;-49
2022/12/26 05:09:33;;;;;;;49.30;26.77;;;;;;;7.44;100.00;100998.13;5116879;28;20053;-49
2022/12/26 05:11:58;;;;;;;49.85;27.23;;;;;;;7.40;100.00;100991.13;5116760;28;20026;-48
2022/12/26 05:14:24;;;;;;;50.22;26.90;;;;;;;7.42;100.00;100994.63;5116375;28;20032;-47
2022/12/26 05:30:29;;;;;;;53.05;26.75;;;;;;;7.39;100.00;101009.88;5116326;28;20382;-48
2022/12/26 05:35:38;;;;;;;51.90;24.75;;;;;;;7.34;100.00;101014.78;5115863;28;20034;-49
2022/12/26 05:38:04;;;;;;;47.67;25.63;;;;;;;7.31;100.00;101008.63;5116281;28;20020;-49
2022/12/26 05:40:29;;;;;;;51.22;25.73;;;;;;;7.32;100.00;100997.56;5116094;28;20044;-48
2022/12/26 05:42:55;;;;;;;44.38;23.55;;;;;;;7.32;100.00;100995.00;5115756;28;20024;-49
2022/12/26 05:45:20;;;;;;;48.10;24.92;;;;;;;7.31;100.00;100988.13;5115935;28;20030;-47
2022/12/26 05:47:45;;;;;;;43.47;23.55;;;;;;;7.30;100.00;100996.66;5115193;28;20024;-47
2022/12/26 05:50:10;;;;;;;60.33;26.70;;;;;;;7.27;100.00;100978.53;5115992;28;20026;-46
2022/12/26 05:52:36;;;;;;;52.55;25.80;;;;;;;7.25;100.00;100976.78;5115962;28;20094;-48
2022/12/26 05:55:01;;;;;;;46.80;23.73;;;;;;;7.21;100.00;100971.47;5115431;28;20364;-47
2022/12/26 05:57:26;;;;;;;46.72;23.92;;;;;;;7.22;100.00;100968.97;5115873;28;20031;-46
2022/12/26 05:59:52;;;;;;;50.13;25.95;;;;;;;7.21;100.00;100974.88;5115571;28;20041;-49
2022/12/26 06:02:17;;;;;;;47.92;23.27;;;;;;;7.24;100.00;100974.16;5115173;28;20039;-49
2022/12/26 06:04:42;;;;;;;42.53;24.50;;;;;;;7.26;100.00;100982.81;5115005;28;20047;-48
2022/12/26 06:07:09;;;;;;;44.83;23.05;;;;;;;7.27;100.00;100988.78;5114807;28;20135;-49
2022/12/26 06:09:34;;;;;;;41.67;23.25;;;;;;;7.29;100.00;100988.06;5114957;28;20432;-48
2022/12/26 06:11:59;;;;;;;42.67;22.33;;;;;;;7.32;100.00;100984.75;5115476;28;20382;-49
2022/12/26 06:14:25;;;;;;;42.85;23.85;;;;;;;7.32;100.00;100993.34;5115543;28;20038;-48
2022/12/26 06:16:50;;;;;;;52.42;28.77;;;;;;;7.38;100.00;100992.72;5114692;28;20024;-48
2022/12/26 06:19:15;;;;;;;41.78;21.60;;;;;;;7.41;100.00;100997.97;5115499;28;20481;-49
2022/12/26 06:21:40;;;;;;;40.38;21.35;;;;;;;7.40;100.00;101007.38;5115325;28;20019;-49
2022/12/26 06:24:06;;;;;;;41.10;22.48;;;;;;;7.39;100.00;101009.88;5114973;28;20585;-47
2022/12/26 06:26:31;;;;;;;47.58;21.20;;;;;;;7.41;100.00;101000.53;5114940;28;20028;-48
2022/12/26 06:28:56;;;;;;;41.22;20.85;;;;;;;7.41;100.00;101009.13;5115357;28;20483;-48
2022/12/26 06:31:23;;;;;;;37.72;21.98;;;;;;;7.37;100.00;101017.50;5114654;28;20019;-48
2022/12/26 06:33:50;;;;;;;40.15;22.77;;;;;;;7.40;100.00;101021.88;5114740;28;20036;-49
2022/12/26 06:36:19;;;;;;;35.88;20.83;;;;;;;7.42;100.00;101027.94;5115354;28;20027;-49
2022/12/26 06:38:45;;;;;;;36.10;20.52;;;;;;;7.41;100.00;101029.66;5114373;28;20023;-47
2022/12/26 06:41:13;;;;;;;36.40;20.80;;;;;;;7.40;100.00;101037.28;5114783;28;20030;-49
2022/12/26 06:43:38;;;;;;;40.60;22.67;;;;;;;7.36;100.00;101027.66;5114677;28;20024;-47
2022/12/26 06:46:06;;;;;;;34.60;21.25;;;;;;;7.43;100.00;101036.53;5114285;28;20102;-49
2022/12/26 06:48:31;;;;;;;37.72;20.30;;;;;;;7.43;100.00;101036.53;5114906;28;20016;-48
2022/12/26 06:51:01;;;;;;;35.63;22.25;;;;;;;7.37;100.00;101039.69;5114501;28;20035;-48
2022/12/26 06:53:26;;;;;;;37.55;21.52;;;;;;;7.34;100.00;101031.84;5114497;28;20508;-48
2022/12/26 06:55:52;;;;;;;35.08;20.48;;;;;;;7.32;100.00;101029.22;5114541;28;20110;-49
2022/12/26 06:58:17;;;;;;;33.70;20.60;;;;;;;7.31;100.00;101021.44;5114163;28;20026;-49
2022/12/26 07:00:43;;;;;;;30.55;19.17;;;;;;;7.33;100.00;101023.28;5114367;28;20027;-49
2022/12/26 07:03:09;;;;;;;32.67;18.77;;;;;;;7.34;100.00;101019.91;5114595;28;20055;-48
2022/12/26 07:05:36;;;;;;;49.42;20.80;;;;;;;7.35;100.00;101020.81;5113641;28;20485;-48
2022/12/26 07:08:01;;;;;;;30.02;18.65;;;;;;;7.32;100.00;101025.78;5114468;28;20026;-47
2022/12/26 07:10:26;;;;;;;32.67;19.02;;;;;;;7.33;100.00;101025.84;5114780;28;20012;-48
2022/12/26 07:12:52;;;;;;;29.48;17.38;;;;;;;7.32;100.00;101023.22;5113563;28;20035;-49
2022/12/26 07:15:17;;;;;;;28.33;17.33;;;;;;;7.31;100.00;101034.25;5114306;28;20417;-49
2022/12/26 07:17:42;;;;;;;27.27;16.85;;;;;;;7.31;100.00;101026.56;5114083;28;20023;-49
2022/12/26 07:20:08;;;;;;;28.17;16.67;;;;;;;7.29;100.00;101028.22;5113949;28;20024;-48
2022/12/26 07:22:33;;;;;;;32.25;16.33;;;;;;;7.24;100.00;101021.19;5113634;28;20440;-47
2022/12/26 07:24:59;;;;;;;29.70;15.63;;;;;;;7.29;100.00;101028.22;5114069;28;20024;-44
2022/12/26 07:27:25;;;;;;;30.92;15.95;;;;;;;7.28;100.00;101029.00;5113596;28;20114;-45
2022/12/26 07:29:50;;;;;;;30.52;15.80;;;;;;;7.26;100.00;101028.94;5113450;28;20031;-48
2022/12/26 07:32:15;;;;;;;23.98;14.90;;;;;;;7.24;100.00;101036.56;5114226;28;20055;-48
2022/12/26 07:34:42;;;;;;;27.67;14.88;;;;;;;7.25;100.00;101040.88;5113568;28;20028;-47
2022/12/26 07:37:07;;;;;;;26.52;15.18;;;;;;;7.27;100.00;101046.09;5113885;28;20135;-48
2022/12/26 07:39:34;;;;;;;25.25;14.48;;;;;;;7.22;100.00;101042.44;5113662;28;20387;-48
2022/12/26 07:42:00;;;;;;;26.60;15.65;;;;;;;7.22;100.00;101047.56;5113222;28;20020;-49
2022/12/26 07:44:29;;;;;;;29.65;15.45;;;;;;;7.24;100.00;101062.22;5113682;28;20034;-48
2022/12/26 07:46:56;;;;;;;27.85;14.77;;;;;;;7.22;100.00;101062.94;5114175;28;20028;-45
2022/12/26 07:49:22;;;;;;;31.38;15.15;;;;;;;7.28;100.00;101059.78;5113116;28;20047;-46
2022/12/26 07:51:48;;;;;;;28.52;15.40;;;;;;;7.25;100.00;101058.81;5113654;28;20035;-48
2022/12/26 07:54:13;;;;;;;30.98;16.02;;;;;;;7.27;100.00;101055.44;5113106;28;20020;-49
2022/12/26 07:56:39;;;;;;;28.83;15.27;;;;;;;7.25;100.00;101053.69;5113020;28;20027;-48
2022/12/26 07:59:05;;;;;;;26.80;14.90;;;;;;;7.29;100.00;101053.84;5113930;28;20031;-48
2022/12/26 08:01:30;;;;;;;30.60;16.58;;;;;;;7.30;100.00;101061.59;5112928;28;20027;-48
2022/12/26 08:03:55;;;;;;;27.92;15.32;;;;;;;7.28;100.00;101062.34;5113172;28;20039;-49
2022/12/26 08:06:21;;;;;;;30.80;15.52;;;;;;;7.24;100.00;101072.47;5113457;28;20066;-49
2022/12/26 08:08:46;;;;;;;31.27;15.55;;;;;;;7.24;100.00;101072.47;5112723;28;20479;-47
2022/12/26 08:11:17;;;;;;;26.85;15.05;;;;;;;7.29;100.00;101074.34;5113172;28;20031;-47
2022/12/26 08:13:43;;;;;;;30.00;15.65;;;;;;;7.23;100.00;101073.25;5113151;28;20118;-47
2022/12/26 08:16:11;;;;;;;28.67;14.88;;;;;;;7.23;100.00;101074.94;5112723;28;20043;-48
2022/12/26 08:18:36;;;;;;;32.03;15.77;;;;;;;7.21;100.00;101067.16;5112899;28;20106;-48
2022/12/26 08:21:02;;;;;;;48.65;21.08;;;;;;;7.29;100.00;101069.22;5113445;28;20070;-48
2022/12/26 08:23:27;;;;;;;117.50;44.22;;;;;;;7.32;100.00;101065.13;5112510;28;20056;-45
2022/12/26 08:25:53;;;;;;;34.60;18.38;;;;;;;7.34;100.00;101057.50;5112939;28;20016;-49
2022/12/26 08:28:18;;;;;;;29.35;15.57;;;;;;;7.42;100.00;101076.66;5113258;28;20042;-47
2022/12/26 08:30:44;;;;;;;24.30;14.02;;;;;;;7.48;100.00;101066.69;5111825;28;20103;-45
2022/12/26 08:33:10;;;;;;;28.98;13.65;;;;;;;7.57;100.00;101067.09;5113089;28;20497;-49
2022/12/26 08:35:37;;;;;;;25.85;12.55;;;;;;;7.68;100.00;101066.72;5112794;28;20123;-48
2022/12/26 08:38:03;;;;;;;24.60;12.15;;;;;;;7.81;100.00;101066.47;5112606;28;20023;-49
2022/12/26 08:40:29;;;;;;;26.55;11.48;;;;;;;7.92;100.00;101074.63;5112440;28;20532;-49
2022/12/26 08:42:54;;;;;;;22.90;11.27;;;;;;;8.01;100.00;101084.44;5113175;28;20028;-47
2022/12/26 08:45:20;;;;;;;24.20;10.90;;;;;;;8.09;100.00;101083.06;5112580;28;20127;-44
2022/12/26 08:47:45;;;;;;;20.23;10.88;;;;;;;8.17;100.00;101075.69;5112498;28;20023;-48
2022/12/26 08:50:10;;;;;;;21.10;11.10;;;;;;;8.19;100.00;101092.91;5113100;28;20023;-47
2022/12/26 08:52:36;;;;;;;26.02;11.10;;;;;;;8.19;100.00;101095.50;5111886;28;20047;-47
2022/12/26 08:55:02;;;;;;;25.95;10.50;;;;;;;8.24;100.00;101088.00;5112790;28;20475;-49
2022/12/26 08:57:27;;;;;;;23.35;11.02;;;;;;;8.31;100.00;101105.41;5112957;28;20034;-46
2022/12/26 08:59:53;;;;;;;21.55;11.35;;;;;;;8.34;100.00;101108.13;5112415;28;20028;-50
2022/12/26 09:02:18;;;;;;;24.10;10.30;;;;;;;8.38;100.00;101097.16;5113023;28;20023;-44
2022/12/26 09:04:43;;;;;;;26.95;10.18;;;;;;;8.45;100.00;101103.44;5111915;28;20131;-46
2022/12/26 09:07:09;;;;;;;23.35;11.50;;;;;;;8.49;100.00;101112.19;5112648;28;20020;-49
2022/12/26 09:09:34;;;;;;;20.38;9.43;;;;;;;8.54;100.00;101105.53;5112516;28;20027;-49
2022/12/26 09:12:00;;;;;;;23.77;9.88;;;;;;;8.55;100.00;101121.03;5112496;28;20020;-47
2022/12/26 09:14:25;;;;;;;17.92;9.10;;;;;;;8.55;100.00;101115.88;5112651;28;20055;-45
2022/12/26 09:16:51;;;;;;;18.23;8.40;;;;;;;8.57;100.00;101098.84;5112460;28;20051;-46
2022/12/26 09:19:18;;;;;;;17.73;7.70;;;;;;;8.60;100.00;101115.19;5112357;28;20027;-47
2022/12/26 09:21:44;;;;;;;18.77;7.97;;;;;;;8.64;100.00;101119.66;5112350;28;20023;-50
2022/12/26 09:24:13;;;;;;;18.05;7.72;;;;;;;8.63;100.00;101126.47;5112655;28;20459;-51
2022/12/26 09:26:39;;;;;;;22.00;8.32;;;;;;;8.63;100.00;101133.31;5111798;28;20527;-49
2022/12/26 09:29:04;;;;;;;19.65;6.53;;;;;;;8.66;100.00;101133.44;5112518;28;20020;-48
2022/12/26 09:31:33;;;;;;;18.60;7.93;;;;;;;8.66;100.00;101118.03;5112448;28;20020;-50
2022/12/26 09:34:00;;;;;;;20.77;8.93;;;;;;;8.67;100.00;101141.22;5112068;28;20035;-48
2022/12/26 09:36:31;;;;;;;17.35;8.15;;;;;;;8.66;100.00;101141.16;5112450;28;20031;-50
2022/12/26 09:38:57;;;;;;;20.08;8.80;;;;;;;8.63;100.00;101138.47;5112665;28;20120;-49
2022/12/26 09:42:00;;;;;;;19.10;7.50;;;;;;;8.66;100.00;101160.03;5113138;28;20028;-50
2022/12/26 09:44:56;;;;;;;18.13;6.43;;;;;;;8.68;100.00;101157.53;5116136;28;20079;-50
2022/12/26 09:47:31;;;;;;;19.10;6.72;;;;;;;8.68;100.00;101158.38;5115827;28;20069;-48
2022/12/26 09:50:13;;;;;;;17.88;6.60;;;;;;;8.68;100.00;101158.38;5115981;28;20062;-50
2022/12/26 09:52:51;;;;;;;21.67;6.53;;;;;;;8.69;100.00;101164.41;5115828;28;20028;-48
2022/12/26 09:55:47;;;;;;;18.85;6.32;;;;;;;8.73;100.00;101179.16;5115386;28;20067;-48
2022/12/26 09:58:35;;;;;;;20.90;8.60;;;;;;;8.76;100.00;101176.69;5107416;28;20047;-49
2022/12/26 10:01:08;;;;;;;17.00;5.80;;;;;;;8.76;100.00;101168.13;5115322;28;20081;-47
2022/12/26 10:03:38;;;;;;;18.60;6.47;;;;;;;8.73;100.00;101172.31;5115263;28;20032;-46
2022/12/26 10:06:16;;;;;;;14.02;5.90;;;;;;;8.75;100.00;101180.06;5115882;28;20031;-50
2022/12/26 10:09:16;;;;;;;22.33;6.15;;;;;;;8.80;100.00;101181.16;5114984;28;20023;-49
2022/12/26 10:11:58;;;;;;;25.10;8.27;;;;;;;8.81;100.00;101177.78;5115201;28;20068;-48
2022/12/26 10:14:54;;;;;;;17.77;5.93;;;;;;;8.85;100.00;101192.50;5115711;28;20027;-49
2022/12/26 10:17:36;;;;;;;13.77;6.32;;;;;;;8.92;100.00;101187.63;5115204;28;20035;-49
2022/12/26 10:20:29;;;;;;;19.80;7.30;;;;;;;8.91;100.00;101189.34;5115523;28;20019;-47
2022/12/26 10:23:10;;;;;;;16.27;6.45;;;;;;;8.88;100.00;101207.16;5115119;28;20031;-49
2022/12/26 10:25:46;;;;;;;17.52;7.50;;;;;;;8.87;100.00;101201.16;5115123;28;20023;-49
2022/12/26 10:28:32;;;;;;;15.88;7.20;;;;;;;8.89;100.00;101204.66;5115344;28;20020;-49
2022/12/26 10:31:01;;;;;;;18.77;7.90;;;;;;;8.85;100.00;101201.91;5114503;28;20552;-49
2022/12/26 10:33:46;;;;;;;23.73;10.63;;;;;;;8.83;100.00;101227.56;5115272;28;20047;-49
2022/12/26 10:36:42;;;;;;;26.33;8.85;;;;;;;8.74;100.00;101258.00;5114771;28;20038;-49
2022/12/26 10:39:17;;;;;;;28.10;5.93;;;;;;;8.35;100.00;101253.72;5108570;28;20130;-49
2022/12/26 10:41:46;;;;;;;14.20;4.78;;;;;;;8.10;100.00;101255.97;5114967;28;20062;-45
2022/12/26 10:44:14;;;;;;;19.02;4.78;;;;;;;7.91;100.00;101258.56;5114622;28;20094;-48
2022/12/26 10:47:14;;;;;;;26.63;8.70;;;;;;;7.84;100.00;101266.75;5114561;28;20378;-50
2022/12/26 10:49:43;;;;;;;36.60;12.80;;;;;;;7.71;100.00;101267.00;5114549;28;20024;-49
2022/12/26 10:52:10;;;;;;;42.83;17.23;;;;;;;7.64;100.00;101262.34;5113524;28;20544;-47
2022/12/26 10:54:36;;;;;;;26.90;6.18;;;;;;;7.62;100.00;101261.38;5114786;28;20063;-49
2022/12/26 10:57:03;;;;;;;44.80;19.17;;;;;;;7.60;100.00;101266.44;5114715;28;20063;-47
2022/12/26 10:59:43;;;;;;;30.47;12.27;;;;;;;7.57;100.00;101282.56;5114289;28;20119;-49
2022/12/26 11:02:25;;;;;;;27.38;8.18;;;;;;;7.53;100.00;101290.94;5114603;28;20753;-48
2022/12/26 11:05:05;;;;;;;30.65;8.70;;;;;;;7.49;100.00;101289.03;5113988;28;20036;-50
2022/12/26 11:07:55;;;;;;;35.33;10.27;;;;;;;7.47;100.00;101300.88;5114116;28;20059;-48
2022/12/26 11:10:25;;;;;;;32.67;6.95;;;;;;;7.42;100.00;101294.63;5114498;28;20035;-50
2022/12/26 11:12:53;;;;;;;35.17;10.63;;;;;;;7.37;100.00;101314.06;5113217;28;20364;-46
2022/12/26 11:15:29;;;;;;;26.77;6.78;;;;;;;7.25;100.00;101315.19;5114349;28;20070;-49
2022/12/26 11:18:07;;;;;;;31.73;5.15;;;;;;;7.18;100.00;101328.50;5114553;28;20027;-48
2022/12/26 11:20:32;;;;;;;32.17;6.25;;;;;;;7.12;100.00;101328.19;5113570;28;20047;-48
2022/12/26 11:23:27;;;;;;;36.60;7.70;;;;;;;7.16;100.00;101335.22;5114199;28;20047;-48
2022/12/26 11:25:58;;;;;;;24.75;4.93;;;;;;;7.04;100.00;101340.63;5113828;28;20035;-49
2022/12/26 11:28:25;;;;;;;43.50;13.80;;;;;;;7.04;100.00;101337.19;5113982;28;20023;-46
2022/12/26 11:30:51;;;;;;;28.17;5.28;;;;;;;7.00;100.00;101330.16;5113770;28;20463;-48
2022/12/26 11:33:29;;;;;;;31.60;8.48;;;;;;;6.98;100.00;101335.16;5113526;28;20042;-49
2022/12/26 11:36:03;;;;;;;34.30;6.32;;;;;;;6.96;100.00;101330.75;5114046;28;20108;-48
2022/12/26 11:38:34;;;;;;;28.92;6.30;;;;;;;6.98;100.00;101337.72;5113863;28;20180;-48
2022/12/26 11:43:49;;;;;;;28.17;6.75;;;;;;;7.13;100.00;101340.22;5114086;28;20450;-48
2022/12/26 11:46:15;;;;;;;;;;;;;;;7.30;100.00;101348.75;5114087;28;20416;-47
2022/12/26 11:48:40;;;;;;;28.38;6.85;;;;;;;7.28;100.00;101347.78;5113257;28;20355;-49
2022/12/26 11:51:08;;;;;;;31.52;6.97;;;;;;;7.35;100.00;101355.00;5113921;28;20019;-49
2022/12/26 11:53:33;;;;;;;33.25;5.97;;;;;;;7.44;100.00;101357.16;5108113;28;20106;-50
2022/12/26 11:56:05;;;;;;;38.95;6.53;;;;;;;7.67;100.00;101355.75;5092985;28;20154;-47
2022/12/26 11:58:32;;;;;;;28.35;5.93;;;;;;;7.70;100.00;101362.72;5092905;28;20028;-49
2022/12/26 12:00:57;;;;;;;22.58;6.18;;;;;;;7.66;100.00;101359.09;5092867;28;20028;-48
2022/12/26 12:03:38;;;;;;;24.48;5.25;;;;;;;7.64;100.00;101370.09;5092279;28;20122;-48
2022/12/26 12:06:12;;;;;;;25.83;5.03;;;;;;;7.57;100.00;101379.19;5093099;28;20051;-48
2022/12/26 12:09:04;;;;;;;30.10;6.25;;;;;;;7.54;100.00;101379.91;5092365;28;20035;-47
2022/12/26 12:11:29;;;;;;;25.13;6.03;;;;;;;7.42;100.00;101376.72;5093016;28;20028;-47
2022/12/26 12:14:13;;;;;;;35.93;6.90;;;;;;;7.43;100.00;101375.03;5093017;28;20035;-48
2022/12/26 12:16:50;;;;;;;23.20;5.82;;;;;;;7.33;100.00;101384.81;5091990;28;20765;-47
2022/12/26 12:19:53;;;;;;;27.30;5.07;;;;;;;7.29;100.00;101382.03;5092961;28;20073;-44
2022/12/26 12:22:38;;;;;;;23.40;4.35;;;;;;;7.17;100.00;101387.41;5092270;28;20429;-46
2022/12/26 12:25:13;;;;;;;21.08;4.80;;;;;;;7.09;100.00;101381.88;5092541;28;20052;-45
2022/12/26 12:27:55;;;;;;;23.10;4.22;;;;;;;7.01;100.00;101376.34;5092548;28;20024;-47
2022/12/26 12:30:32;;;;;;;27.00;4.32;;;;;;;7.05;100.00;101377.34;5092298;28;20056;-43
2022/12/26 12:33:31;;;;;;;20.38;3.70;;;;;;;7.13;100.00;101377.75;5092805;28;20380;-47
2022/12/26 12:36:21;;;;;;;18.33;3.63;;;;;;;7.12;100.00;101394.84;5092164;28;20110;-43
2022/12/26 12:39:01;;;;;;;23.88;3.97;;;;;;;7.04;98.42;101399.56;5092509;28;20020;-49
2022/12/26 12:41:51;;;;;;;28.73;4.13;;;;;;;7.01;99.61;101395.94;5092903;28;20024;-44
2022/12/26 12:44:51;;;;;;;18.60;3.58;;;;;;;6.92;100.00;101404.06;5091966;28;20077;-44
2022/12/26 12:47:44;;;;;;;25.48;4.60;;;;;;;6.77;99.62;101395.53;5030451;28;20033;-45
2022/12/26 12:50:23;;;;;;;21.60;4.38;;;;;;;6.66;100.00;101407.75;5090841;28;20044;-45
2022/12/26 12:53:19;;;;;;;22.33;4.63;;;;;;;6.68;100.00;101412.16;5092187;28;20028;-48
2022/12/26 12:55:47;;;;;;;29.65;9.68;;;;;;;6.62;99.32;101426.31;5092283;28;20039;-48
2022/12/26 12:58:34;;;;;;;24.15;7.43;;;;;;;6.58;99.62;101421.03;5091760;28;20032;-47
2022/12/26 13:01:14;;;;;;;21.48;4.85;;;;;;;6.48;100.00;101429.00;5092637;28;20039;-48
2022/12/26 13:04:09;;;;;;;20.23;5.53;;;;;;;6.41;99.27;101426.88;5091716;28;20044;-47
2022/12/26 13:06:40;;;;;;;16.58;3.97;;;;;;;6.25;98.61;101433.72;5091979;28;20020;-46
2022/12/26 13:09:12;;;;;;;23.95;6.15;;;;;;;6.22;97.17;101432.66;5092384;28;20021;-46
2022/12/26 13:11:42;;;;;;;21.00;6.07;;;;;;;6.20;97.53;101432.56;5091796;28;20051;-45
2022/12/26 13:14:17;;;;;;;22.40;5.97;;;;;;;6.26;97.65;101437.13;5092227;28;20028;-46
2022/12/26 13:16:55;;;;;;;26.90;5.60;;;;;;;6.32;97.45;101431.50;5095056;28;20379;-49
2022/12/26 13:19:30;;;;;;;16.73;5.00;;;;;;;6.31;97.16;101435.72;5095377;28;20059;-48
2022/12/26 13:22:03;;;;;;;17.30;4.20;;;;;;;6.32;93.98;101446.88;5096336;28;20028;-49
2022/12/26 13:24:38;;;;;;;15.93;4.40;;;;;;;6.32;93.98;101434.94;5095953;28;20099;-44
2022/12/26 13:27:23;;;;;;;13.15;4.18;;;;;;;6.31;94.65;101429.72;5095453;28;20027;-49
2022/12/26 13:29:49;;;;;;;17.33;4.00;;;;;;;6.33;97.55;101430.72;5095821;28;20523;-48
2022/12/26 13:32:24;;;;;;;20.88;5.10;;;;;;;6.24;94.68;101434.50;5095499;28;20030;-46
2022/12/26 13:34:51;;;;;;;24.60;5.53;;;;;;;6.17;94.52;101436.63;5095578;28;20032;-47
2022/12/26 13:37:38;;;;;;;23.90;4.07;;;;;;;6.10;93.67;101450.75;5096129;28;20020;-47
2022/12/26 13:40:09;;;;;;;17.10;5.35;;;;;;;5.96;93.18;101451.59;5095132;28;20040;-44